createdAt,value
2024-04-04T00:00:35.943Z,0.00
2024-04-04T00:01:35.924Z,0.00
2024-04-04T00:02:35.909Z,0.00
2024-04-04T00:03:35.903Z,0.00
2024-04-04T00:04:35.903Z,0.00
2024-04-04T00:05:35.880Z,0.00
2024-04-04T00:06:35.868Z,0.00
2024-04-04T00:07:35.857Z,0.00
2024-04-04T00:08:35.853Z,0.00
2024-04-04T00:09:35.841Z,0.00
2024-04-04T00:10:35.835Z,0.00
2024-04-04T00:11:35.812Z,0.00
2024-04-04T00:12:35.824Z,0.00
2024-04-04T00:13:35.798Z,0.00
2024-04-04T00:14:35.796Z,0.00
2024-04-04T00:15:35.769Z,0.00
2024-04-04T00:16:35.770Z,0.00
2024-04-04T00:17:35.747Z,0.00
2024-04-04T00:18:35.731Z,0.00
2024-04-04T00:19:35.719Z,0.00
2024-04-04T00:20:35.722Z,0.00
2024-04-04T00:21:35.722Z,0.00
2024-04-04T00:22:35.686Z,0.00
2024-04-04T00:23:35.690Z,0.00
2024-04-04T00:24:35.664Z,0.00
2024-04-04T00:25:35.659Z,0.00
2024-04-04T00:26:35.658Z,0.00
2024-04-04T00:27:35.644Z,0.00
2024-04-04T00:28:35.632Z,0.00
2024-04-04T00:29:35.609Z,0.00
2024-04-04T00:30:35.603Z,0.00
2024-04-04T00:31:35.608Z,0.00
2024-04-04T00:32:35.584Z,0.00
2024-04-04T00:33:35.573Z,0.00
2024-04-04T00:34:35.553Z,0.00
2024-04-04T00:35:35.541Z,0.00
2024-04-04T00:36:35.532Z,0.00
2024-04-04T00:37:35.520Z,0.00
2024-04-04T00:38:35.527Z,0.00
2024-04-04T00:39:35.533Z,0.00
2024-04-04T00:40:35.493Z,0.00
2024-04-04T00:41:35.480Z,0.00
2024-04-04T00:42:35.486Z,0.00
2024-04-04T00:43:35.457Z,0.00
2024-04-04T00:44:35.445Z,0.00
2024-04-04T00:45:35.446Z,0.00
2024-04-04T00:46:35.439Z,0.00
2024-04-04T00:47:35.412Z,0.00
2024-04-04T00:48:35.400Z,0.00
2024-04-04T00:49:36.246Z,0.00
2024-04-04T00:50:35.377Z,0.00
2024-04-04T00:51:35.380Z,0.00
2024-04-04T00:52:35.375Z,0.00
2024-04-04T00:53:35.355Z,0.00
2024-04-04T00:54:35.356Z,0.00
2024-04-04T00:55:35.345Z,0.00
2024-04-04T00:56:35.312Z,0.00
2024-04-04T00:57:35.306Z,0.00
2024-04-04T00:58:35.323Z,0.00
2024-04-04T00:59:35.283Z,0.00
2024-04-04T01:00:35.296Z,0.00
2024-04-04T01:01:35.279Z,0.00
2024-04-04T01:02:35.268Z,0.00
2024-04-04T01:03:35.249Z,0.00
2024-04-04T01:04:35.225Z,0.00
2024-04-04T01:05:35.231Z,0.00
2024-04-04T01:06:35.199Z,0.00
2024-04-04T01:07:35.190Z,0.00
2024-04-04T01:08:35.193Z,0.00
2024-04-04T01:09:35.188Z,0.00
2024-04-04T01:10:35.162Z,0.00
2024-04-04T01:11:35.164Z,0.00
2024-04-04T01:12:35.141Z,0.00
2024-04-04T01:13:35.119Z,0.00
2024-04-04T01:14:35.178Z,0.00
2024-04-04T01:15:35.099Z,0.00
2024-04-04T01:16:35.091Z,0.00
2024-04-04T01:17:35.101Z,0.00
2024-04-04T01:18:35.068Z,0.00
2024-04-04T01:19:35.091Z,0.00
2024-04-04T01:20:35.068Z,0.00
2024-04-04T01:21:35.047Z,0.00
2024-04-04T01:22:35.038Z,0.00
2024-04-04T01:23:35.013Z,0.00
2024-04-04T01:24:35.028Z,0.00
2024-04-04T01:25:35.014Z,0.00
2024-04-04T01:26:34.985Z,0.00
2024-04-04T01:27:34.990Z,0.00
2024-04-04T01:28:34.984Z,0.00
2024-04-04T01:29:34.959Z,0.00
2024-04-04T01:30:34.951Z,0.00
2024-04-04T01:31:34.924Z,0.00
2024-04-04T01:32:34.927Z,0.00
2024-04-04T01:33:34.903Z,0.00
2024-04-04T01:34:34.918Z,0.00
2024-04-04T01:35:34.879Z,0.00
2024-04-04T01:36:34.871Z,0.00
2024-04-04T01:37:34.856Z,0.00
2024-04-04T01:38:34.845Z,0.00
2024-04-04T01:39:34.846Z,0.00
2024-04-04T01:40:34.825Z,0.00
2024-04-04T01:41:34.816Z,0.00
2024-04-04T01:42:34.801Z,0.00
2024-04-04T01:43:34.813Z,0.00
2024-04-04T01:44:34.781Z,0.00
2024-04-04T01:45:34.795Z,0.00
2024-04-04T01:46:34.767Z,0.00
2024-04-04T01:47:34.749Z,0.00
2024-04-04T01:48:34.736Z,0.00
2024-04-04T01:49:34.731Z,0.00
2024-04-04T01:50:34.724Z,0.00
2024-04-04T01:51:34.715Z,0.00
2024-04-04T01:52:34.704Z,0.00
2024-04-04T01:53:34.686Z,0.00
2024-04-04T01:54:34.669Z,0.00
2024-04-04T01:55:34.661Z,0.00
2024-04-04T01:56:34.648Z,0.00
2024-04-04T01:57:34.651Z,0.00
2024-04-04T01:58:34.631Z,0.00
2024-04-04T01:59:34.621Z,0.00
2024-04-04T02:00:34.657Z,0.00
2024-04-04T02:01:34.593Z,0.00
2024-04-04T02:02:34.603Z,0.00
2024-04-04T02:03:34.566Z,0.00
2024-04-04T02:04:34.560Z,0.00
2024-04-04T02:05:34.551Z,0.00
2024-04-04T02:06:34.551Z,0.00
2024-04-04T02:07:34.543Z,0.00
2024-04-04T02:08:34.533Z,0.00
2024-04-04T02:09:34.550Z,0.00
2024-04-04T02:10:34.495Z,0.00
2024-04-04T02:11:34.480Z,0.00
2024-04-04T02:12:34.474Z,0.00
2024-04-04T02:13:34.510Z,0.00
2024-04-04T02:14:34.492Z,0.00
2024-04-04T02:15:34.446Z,0.00
2024-04-04T02:16:34.435Z,0.00
2024-04-04T02:17:34.433Z,0.00
2024-04-04T02:18:34.447Z,0.00
2024-04-04T02:19:34.397Z,0.00
2024-04-04T02:20:34.391Z,0.00
2024-04-04T02:21:34.380Z,0.00
2024-04-04T02:22:34.360Z,0.00
2024-04-04T02:23:34.345Z,0.00
2024-04-04T02:24:34.339Z,0.00
2024-04-04T02:25:34.325Z,0.00
2024-04-04T02:26:34.315Z,0.00
2024-04-04T02:27:34.334Z,0.00
2024-04-04T02:28:34.296Z,0.00
2024-04-04T02:29:34.284Z,0.00
2024-04-04T02:30:34.269Z,0.00
2024-04-04T02:31:34.257Z,0.00
2024-04-04T02:32:34.299Z,0.00
2024-04-04T02:33:34.250Z,0.00
2024-04-04T02:34:34.244Z,0.00
2024-04-04T02:35:34.212Z,0.00
2024-04-04T02:36:34.211Z,0.00
2024-04-04T02:37:34.193Z,0.00
2024-04-04T02:38:34.220Z,0.00
2024-04-04T02:39:34.169Z,0.00
2024-04-04T02:40:34.167Z,0.00
2024-04-04T02:41:34.147Z,0.00
2024-04-04T02:42:34.131Z,0.00
2024-04-04T02:43:34.141Z,0.00
2024-04-04T02:44:34.125Z,0.00
2024-04-04T02:45:34.110Z,0.00
2024-04-04T02:46:34.093Z,0.00
2024-04-04T02:47:34.141Z,0.00
2024-04-04T02:48:34.066Z,0.00
2024-04-04T02:49:34.058Z,0.00
2024-04-04T02:50:34.071Z,0.00
2024-04-04T02:51:34.049Z,0.00
2024-04-04T02:52:34.022Z,0.00
2024-04-04T02:53:34.016Z,0.00
2024-04-04T02:54:34.004Z,0.00
2024-04-04T02:55:34.012Z,0.00
2024-04-04T02:56:33.980Z,0.00
2024-04-04T02:57:33.977Z,0.00
2024-04-04T02:58:33.978Z,0.00
2024-04-04T02:59:33.946Z,0.00
2024-04-04T03:00:33.962Z,0.00
2024-04-04T03:01:33.925Z,0.00
2024-04-04T03:02:33.920Z,0.00
2024-04-04T03:03:33.908Z,0.00
2024-04-04T03:04:33.895Z,0.00
2024-04-04T03:05:33.890Z,0.00
2024-04-04T03:06:33.889Z,0.00
2024-04-04T03:07:33.864Z,0.00
2024-04-04T03:08:33.845Z,0.00
2024-04-04T03:09:33.831Z,0.00
2024-04-04T03:10:33.852Z,0.00
2024-04-04T03:11:33.812Z,0.00
2024-04-04T03:12:33.829Z,0.00
2024-04-04T03:13:33.789Z,0.00
2024-04-04T03:14:33.792Z,0.00
2024-04-04T03:15:33.770Z,0.00
2024-04-04T03:16:33.755Z,0.00
2024-04-04T03:17:33.774Z,0.00
2024-04-04T03:18:33.731Z,0.00
2024-04-04T03:19:33.737Z,0.00
2024-04-04T03:20:33.717Z,0.00
2024-04-04T03:21:33.718Z,0.00
2024-04-04T03:22:33.705Z,0.00
2024-04-04T03:23:33.695Z,0.00
2024-04-04T03:24:33.669Z,0.00
2024-04-04T03:25:33.659Z,0.00
2024-04-04T03:26:33.647Z,0.00
2024-04-04T03:27:33.696Z,0.00
2024-04-04T03:28:33.633Z,0.00
2024-04-04T03:29:33.617Z,0.00
2024-04-04T03:30:33.618Z,0.00
2024-04-04T03:31:33.601Z,0.00
2024-04-04T03:32:33.587Z,0.00
2024-04-04T03:33:33.570Z,0.00
2024-04-04T03:34:33.588Z,0.00
2024-04-04T03:35:33.544Z,0.00
2024-04-04T03:36:33.535Z,0.00
2024-04-04T03:37:33.525Z,0.00
2024-04-04T03:38:33.527Z,0.00
2024-04-04T03:39:33.501Z,0.00
2024-04-04T03:40:33.502Z,0.00
2024-04-04T03:41:33.483Z,0.00
2024-04-04T03:42:33.465Z,0.00
2024-04-04T03:43:33.460Z,0.00
2024-04-04T03:44:33.456Z,0.00
2024-04-04T03:45:33.437Z,0.00
2024-04-04T03:46:33.445Z,0.00
2024-04-04T03:47:33.452Z,0.00
2024-04-04T03:48:33.408Z,0.00
2024-04-04T03:49:33.390Z,0.00
2024-04-04T03:50:33.399Z,0.00
2024-04-04T03:51:33.371Z,0.00
2024-04-04T03:52:33.364Z,0.00
2024-04-04T03:53:33.360Z,0.00
2024-04-04T03:54:33.357Z,0.00
2024-04-04T03:55:33.328Z,0.00
2024-04-04T03:56:33.324Z,0.00
2024-04-04T03:57:33.307Z,0.00
2024-04-04T03:58:33.295Z,0.00
2024-04-04T03:59:33.293Z,0.00
2024-04-04T04:00:33.286Z,0.00
2024-04-04T04:01:33.277Z,0.00
2024-04-04T04:02:33.273Z,0.00
2024-04-04T04:03:33.236Z,0.00
2024-04-04T04:04:33.224Z,0.00
2024-04-04T04:05:33.227Z,0.00
2024-04-04T04:06:33.219Z,0.00
2024-04-04T04:07:33.194Z,0.00
2024-04-04T04:08:33.182Z,0.00
2024-04-04T04:09:33.168Z,0.00
2024-04-04T04:10:33.192Z,0.00
2024-04-04T04:11:33.171Z,0.00
2024-04-04T04:12:33.176Z,0.00
2024-04-04T04:13:33.131Z,0.00
2024-04-04T04:14:33.117Z,0.00
2024-04-04T04:15:33.107Z,0.00
2024-04-04T04:16:33.108Z,0.00
2024-04-04T04:17:33.117Z,0.00
2024-04-04T04:18:33.098Z,0.00
2024-04-04T04:19:33.064Z,0.00
2024-04-04T04:20:33.072Z,0.00
2024-04-04T04:21:33.055Z,0.00
2024-04-04T04:22:33.023Z,0.00
2024-04-04T04:23:33.014Z,0.00
2024-04-04T04:24:33.017Z,0.00
2024-04-04T04:25:32.997Z,0.00
2024-04-04T04:26:33.004Z,0.00
2024-04-04T04:27:32.971Z,0.00
2024-04-04T04:28:32.961Z,0.00
2024-04-04T04:29:32.962Z,0.00
2024-04-04T04:30:32.937Z,0.00
2024-04-04T04:31:32.946Z,0.00
2024-04-04T04:32:32.917Z,0.00
2024-04-04T04:33:32.904Z,0.00
2024-04-04T04:34:32.906Z,0.00
2024-04-04T04:35:32.888Z,0.00
2024-04-04T04:36:32.887Z,0.00
2024-04-04T04:37:32.872Z,0.00
2024-04-04T04:38:32.880Z,0.00
2024-04-04T04:39:32.852Z,0.00
2024-04-04T04:40:32.841Z,0.00
2024-04-04T04:41:32.831Z,0.00
2024-04-04T04:42:32.819Z,0.00
2024-04-04T04:43:32.792Z,0.00
2024-04-04T04:44:32.784Z,0.00
2024-04-04T04:45:32.778Z,0.00
2024-04-04T04:46:32.782Z,0.00
2024-04-04T04:47:32.762Z,0.00
2024-04-04T04:48:32.735Z,0.00
2024-04-04T04:49:32.723Z,0.00
2024-04-04T04:50:32.722Z,0.00
2024-04-04T04:51:32.711Z,0.00
2024-04-04T04:52:34.811Z,0.00
2024-04-04T04:53:32.683Z,0.00
2024-04-04T04:54:32.708Z,0.00
2024-04-04T04:55:32.675Z,0.00
2024-04-04T04:56:32.675Z,0.00
2024-04-04T04:57:32.713Z,0.00
2024-04-04T04:58:32.633Z,0.00
2024-04-04T04:59:32.651Z,0.00
2024-04-04T05:00:32.643Z,0.00
2024-04-04T05:01:32.593Z,0.00
2024-04-04T05:02:32.580Z,5.62
2024-04-04T05:03:32.586Z,5.62
2024-04-04T05:04:32.563Z,5.62
2024-04-04T05:05:32.560Z,5.62
2024-04-04T05:06:32.539Z,5.62
2024-04-04T05:07:32.536Z,5.62
2024-04-04T05:08:32.555Z,5.62
2024-04-04T05:09:32.506Z,5.62
2024-04-04T05:10:32.516Z,5.62
2024-04-04T05:11:32.494Z,5.62
2024-04-04T05:12:32.481Z,5.62
2024-04-04T05:13:32.488Z,5.62
2024-04-04T05:14:32.462Z,5.62
2024-04-04T05:15:32.442Z,5.62
2024-04-04T05:16:32.428Z,5.62
2024-04-04T05:17:32.430Z,5.62
2024-04-04T05:18:32.411Z,5.62
2024-04-04T05:19:32.407Z,5.62
2024-04-04T05:20:32.397Z,5.62
2024-04-04T05:21:32.371Z,5.62
2024-04-04T05:22:32.375Z,5.62
2024-04-04T05:23:32.366Z,5.62
2024-04-04T05:24:32.362Z,5.62
2024-04-04T05:25:32.351Z,5.62
2024-04-04T05:26:32.342Z,5.62
2024-04-04T05:27:32.305Z,5.62
2024-04-04T05:28:32.345Z,5.62
2024-04-04T05:29:32.318Z,5.62
2024-04-04T05:30:32.305Z,5.62
2024-04-04T05:31:32.266Z,5.62
2024-04-04T05:32:32.279Z,5.62
2024-04-04T05:33:32.258Z,11.25
2024-04-04T05:34:32.236Z,11.25
2024-04-04T05:35:32.234Z,11.25
2024-04-04T05:36:32.219Z,11.25
2024-04-04T05:37:32.207Z,11.25
2024-04-04T05:38:32.210Z,11.25
2024-04-04T05:39:32.194Z,11.25
2024-04-04T05:40:32.183Z,11.25
2024-04-04T05:41:32.181Z,11.25
2024-04-04T05:42:32.147Z,16.88
2024-04-04T05:43:32.133Z,16.88
2024-04-04T05:44:32.131Z,16.88
2024-04-04T05:45:32.133Z,16.88
2024-04-04T05:46:32.106Z,16.88
2024-04-04T05:47:32.134Z,16.88
2024-04-04T05:48:32.081Z,16.88
2024-04-04T05:49:32.081Z,16.88
2024-04-04T05:50:32.066Z,16.88
2024-04-04T05:51:32.066Z,16.88
2024-04-04T05:52:32.049Z,16.88
2024-04-04T05:53:32.057Z,16.88
2024-04-04T05:54:32.011Z,16.88
2024-04-04T05:55:31.996Z,16.88
2024-04-04T05:56:31.988Z,16.88
2024-04-04T05:57:31.985Z,16.88
2024-04-04T05:58:31.976Z,16.88
2024-04-04T05:59:31.966Z,16.88
2024-04-04T06:00:32.005Z,16.88
2024-04-04T06:01:31.933Z,11.25
2024-04-04T06:02:31.945Z,11.25
2024-04-04T06:03:31.910Z,11.25
2024-04-04T06:04:39.262Z,11.25
2024-04-04T06:05:32.894Z,11.25
2024-04-04T06:06:31.874Z,11.25
2024-04-04T06:07:31.865Z,11.25
2024-04-04T06:08:31.857Z,11.25
2024-04-04T06:09:31.865Z,11.25
2024-04-04T06:10:31.832Z,16.88
2024-04-04T06:11:31.836Z,16.88
2024-04-04T06:12:31.816Z,16.88
2024-04-04T06:13:31.832Z,16.88
2024-04-04T06:14:31.799Z,16.88
2024-04-04T06:15:31.804Z,16.88
2024-04-04T06:16:31.770Z,16.88
2024-04-04T06:17:31.790Z,22.50
2024-04-04T06:18:31.771Z,22.50
2024-04-04T06:19:31.752Z,22.50
2024-04-04T06:20:31.730Z,28.12
2024-04-04T06:21:31.729Z,28.12
2024-04-04T06:22:32.138Z,28.12
2024-04-04T06:23:31.696Z,28.12
2024-04-04T06:24:31.684Z,28.12
2024-04-04T06:25:39.248Z,28.12
2024-04-04T06:26:31.668Z,28.12
2024-04-04T06:27:31.661Z,28.12
2024-04-04T06:28:31.656Z,28.12
2024-04-04T06:29:31.635Z,28.12
2024-04-04T06:30:31.619Z,28.12
2024-04-04T06:31:31.621Z,28.12
2024-04-04T06:32:31.650Z,28.12
2024-04-04T06:33:31.579Z,28.12
2024-04-04T06:34:31.587Z,33.75
2024-04-04T06:35:31.573Z,33.75
2024-04-04T06:36:31.546Z,33.75
2024-04-04T06:37:31.563Z,33.75
2024-04-04T06:38:31.573Z,28.12
2024-04-04T06:39:31.524Z,28.12
2024-04-04T06:40:31.528Z,22.50
2024-04-04T06:41:31.502Z,28.12
2024-04-04T06:42:31.475Z,33.75
2024-04-04T06:43:31.489Z,39.38
2024-04-04T06:44:31.473Z,39.38
2024-04-04T06:45:31.475Z,39.38
2024-04-04T06:46:31.434Z,33.75
2024-04-04T06:47:31.508Z,33.75
2024-04-04T06:48:33.176Z,33.75
2024-04-04T06:49:31.468Z,28.12
2024-04-04T06:50:31.420Z,22.50
2024-04-04T06:51:31.383Z,28.12
2024-04-04T06:52:31.370Z,22.50
2024-04-04T06:53:31.411Z,28.12
2024-04-04T06:54:31.412Z,28.12
2024-04-04T06:55:31.495Z,28.12
2024-04-04T06:56:31.405Z,33.75
2024-04-04T06:57:31.364Z,28.12
2024-04-04T06:58:31.386Z,33.75
2024-04-04T06:59:31.348Z,33.75
2024-04-04T07:00:31.405Z,33.75
2024-04-04T07:01:31.323Z,33.75
2024-04-04T07:02:31.321Z,33.75
2024-04-04T07:03:31.304Z,39.38
2024-04-04T07:04:31.385Z,33.75
2024-04-04T07:05:31.279Z,33.75
2024-04-04T07:06:31.277Z,33.75
2024-04-04T07:07:31.261Z,28.12
2024-04-04T07:08:31.363Z,28.12
2024-04-04T07:09:31.234Z,28.12
2024-04-04T07:10:31.222Z,28.12
2024-04-04T07:11:31.252Z,28.12
2024-04-04T07:12:31.192Z,22.50
2024-04-04T07:13:31.303Z,22.50
2024-04-04T07:14:31.175Z,22.50
2024-04-04T07:15:31.170Z,22.50
2024-04-04T07:16:31.164Z,22.50
2024-04-04T07:17:31.223Z,22.50
2024-04-04T07:18:31.231Z,22.50
2024-04-04T07:19:31.107Z,22.50
2024-04-04T07:20:31.129Z,22.50
2024-04-04T07:21:31.112Z,22.50
2024-04-04T07:22:31.111Z,22.50
2024-04-04T07:23:31.087Z,22.50
2024-04-04T07:24:31.131Z,22.50
2024-04-04T07:25:31.092Z,22.50
2024-04-04T07:26:31.101Z,22.50
2024-04-04T07:27:31.027Z,22.50
2024-04-04T07:28:31.037Z,22.50
2024-04-04T07:29:31.013Z,22.50
2024-04-04T07:30:31.101Z,22.50
2024-04-04T07:31:30.981Z,16.88
2024-04-04T07:32:30.970Z,16.88
2024-04-04T07:33:30.932Z,16.88
2024-04-04T07:34:30.957Z,16.88
2024-04-04T07:35:30.933Z,16.88
2024-04-04T07:36:31.016Z,16.88
2024-04-04T07:37:30.896Z,16.88
2024-04-04T07:38:30.963Z,16.88
2024-04-04T07:39:39.222Z,16.88
2024-04-04T07:40:30.910Z,16.88
2024-04-04T07:41:30.870Z,16.88
2024-04-04T07:42:30.866Z,22.50
2024-04-04T07:43:30.925Z,22.50
2024-04-04T07:44:30.835Z,22.50
2024-04-04T07:45:30.898Z,22.50
2024-04-04T07:46:30.836Z,22.50
2024-04-04T07:47:30.848Z,22.50
2024-04-04T07:48:30.761Z,22.50
2024-04-04T07:49:30.750Z,22.50
2024-04-04T07:50:30.736Z,22.50
2024-04-04T07:51:30.764Z,22.50
2024-04-04T07:52:30.792Z,22.50
2024-04-04T07:53:30.748Z,22.50
2024-04-04T07:54:30.807Z,22.50
2024-04-04T07:55:30.850Z,22.50
2024-04-04T07:56:30.687Z,22.50
2024-04-04T07:57:30.808Z,22.50
2024-04-04T07:58:30.678Z,22.50
2024-04-04T07:59:30.755Z,22.50
2024-04-04T08:00:30.707Z,28.12
2024-04-04T08:01:30.655Z,28.12
2024-04-04T08:02:30.651Z,28.12
2024-04-04T08:03:30.632Z,28.12
2024-04-04T08:04:30.595Z,28.12
2024-04-04T08:05:30.608Z,28.12
2024-04-04T08:06:30.665Z,28.12
2024-04-04T08:07:30.587Z,28.12
2024-04-04T08:08:30.571Z,28.12
2024-04-04T08:09:30.532Z,33.75
2024-04-04T08:10:30.565Z,33.75
2024-04-04T08:11:30.589Z,33.75
2024-04-04T08:12:30.537Z,33.75
2024-04-04T08:13:30.514Z,33.75
2024-04-04T08:14:30.543Z,33.75
2024-04-04T08:15:30.586Z,28.12
2024-04-04T08:16:30.483Z,16.88
2024-04-04T08:17:30.445Z,16.88
2024-04-04T08:18:30.458Z,11.25
2024-04-04T08:19:30.451Z,11.25
2024-04-04T08:20:30.523Z,11.25
2024-04-04T08:21:30.422Z,11.25
2024-04-04T08:22:30.476Z,11.25
2024-04-04T08:23:30.436Z,5.62
2024-04-04T08:24:30.404Z,5.62
2024-04-04T08:25:30.435Z,5.62
2024-04-04T08:26:30.363Z,5.62
2024-04-04T08:27:30.331Z,5.62
2024-04-04T08:28:30.304Z,5.62
2024-04-04T08:29:30.311Z,11.25
2024-04-04T08:30:30.284Z,11.25
2024-04-04T08:31:30.281Z,11.25
2024-04-04T08:32:31.958Z,11.25
2024-04-04T08:33:30.262Z,11.25
2024-04-04T08:34:30.266Z,11.25
2024-04-04T08:35:30.229Z,11.25
2024-04-04T08:36:30.235Z,11.25
2024-04-04T08:37:30.238Z,11.25
2024-04-04T08:38:30.199Z,11.25
2024-04-04T08:39:30.192Z,16.88
2024-04-04T08:40:30.183Z,16.88
2024-04-04T08:41:30.164Z,16.88
2024-04-04T08:42:30.172Z,16.88
2024-04-04T08:43:30.189Z,16.88
2024-04-04T08:44:30.132Z,16.88
2024-04-04T08:45:31.433Z,16.88
2024-04-04T08:46:30.107Z,16.88
2024-04-04T08:47:30.118Z,16.88
2024-04-04T08:48:30.096Z,16.88
2024-04-04T08:49:30.104Z,22.50
2024-04-04T08:50:40.082Z,22.50
2024-04-04T08:51:31.049Z,28.12
2024-04-04T08:52:30.048Z,33.75
2024-04-04T08:53:30.050Z,33.75
2024-04-04T08:54:30.031Z,39.38
2024-04-04T08:55:30.019Z,39.38
2024-04-04T08:56:30.070Z,39.38
2024-04-04T08:57:29.999Z,45.00
2024-04-04T08:58:29.988Z,39.38
2024-04-04T08:59:29.985Z,39.38
2024-04-04T09:00:29.950Z,39.38
2024-04-04T09:01:33.941Z,45.00
2024-04-04T09:02:30.948Z,45.00
2024-04-04T09:03:29.917Z,45.00
2024-04-04T09:04:29.923Z,45.00
2024-04-04T09:05:29.899Z,39.38
2024-04-04T09:06:29.886Z,39.38
2024-04-04T09:07:29.878Z,39.38
2024-04-04T09:08:29.888Z,39.38
2024-04-04T09:09:29.863Z,39.38
2024-04-04T09:10:29.870Z,39.38
2024-04-04T09:11:29.832Z,39.38
2024-04-04T09:12:29.821Z,39.38
2024-04-04T09:13:29.809Z,39.38
2024-04-04T09:14:29.834Z,39.38
2024-04-04T09:15:29.804Z,39.38
2024-04-04T09:16:29.794Z,39.38
2024-04-04T09:17:29.768Z,39.38
2024-04-04T09:18:29.754Z,45.00
2024-04-04T09:19:29.747Z,45.00
2024-04-04T09:20:29.748Z,45.00
2024-04-04T09:21:29.730Z,45.00
2024-04-04T09:22:29.731Z,39.38
2024-04-04T09:23:29.707Z,39.38
2024-04-04T09:24:30.460Z,39.38
2024-04-04T09:25:29.687Z,39.38
2024-04-04T09:26:29.666Z,39.38
2024-04-04T09:27:29.679Z,39.38
2024-04-04T09:28:29.663Z,33.75
2024-04-04T09:29:29.636Z,33.75
2024-04-04T09:30:29.631Z,33.75
2024-04-04T09:31:29.629Z,28.12
2024-04-04T09:32:29.610Z,28.12
2024-04-04T09:33:29.657Z,28.12
2024-04-04T09:34:29.578Z,28.12
2024-04-04T09:35:29.587Z,28.12
2024-04-04T09:36:29.551Z,28.12
2024-04-04T09:37:29.543Z,28.12
2024-04-04T09:38:29.551Z,33.75
2024-04-04T09:39:29.527Z,33.75
2024-04-04T09:40:29.525Z,33.75
2024-04-04T09:41:29.512Z,33.75
2024-04-04T09:42:29.490Z,33.75
2024-04-04T09:43:29.502Z,33.75
2024-04-04T09:44:29.503Z,33.75
2024-04-04T09:45:29.455Z,28.12
2024-04-04T09:46:29.453Z,22.50
2024-04-04T09:47:29.467Z,22.50
2024-04-04T09:48:36.724Z,22.50
2024-04-04T09:49:30.430Z,22.50
2024-04-04T09:50:29.398Z,16.88
2024-04-04T09:51:29.390Z,16.88
2024-04-04T09:52:29.375Z,16.88
2024-04-04T09:53:29.364Z,22.50
2024-04-04T09:54:29.398Z,22.50
2024-04-04T09:55:29.368Z,16.88
2024-04-04T09:56:29.334Z,16.88
2024-04-04T09:57:29.339Z,11.25
2024-04-04T09:58:30.590Z,11.25
2024-04-04T09:59:29.313Z,16.88
2024-04-04T10:00:29.310Z,16.88
2024-04-04T10:01:29.276Z,22.50
2024-04-04T10:02:29.277Z,22.50
2024-04-04T10:03:29.269Z,22.50
2024-04-04T10:04:29.249Z,22.50
2024-04-04T10:05:29.236Z,22.50
2024-04-04T10:06:29.239Z,22.50
2024-04-04T10:07:29.215Z,22.50
2024-04-04T10:08:29.200Z,22.50
2024-04-04T10:09:29.411Z,22.50
2024-04-04T10:10:29.214Z,22.50
2024-04-04T10:11:29.180Z,22.50
2024-04-04T10:12:29.162Z,22.50
2024-04-04T10:13:29.143Z,22.50
2024-04-04T10:14:29.132Z,16.88
2024-04-04T10:15:29.150Z,16.88
2024-04-04T10:16:29.110Z,16.88
2024-04-04T10:17:29.115Z,16.88
2024-04-04T10:18:29.111Z,11.25
2024-04-04T10:19:29.076Z,11.25
2024-04-04T10:20:29.070Z,11.25
2024-04-04T10:21:29.069Z,11.25
2024-04-04T10:22:29.055Z,11.25
2024-04-04T10:23:29.035Z,11.25
2024-04-04T10:24:29.034Z,11.25
2024-04-04T10:25:29.009Z,11.25
2024-04-04T10:26:29.009Z,11.25
2024-04-04T10:27:29.002Z,11.25
2024-04-04T10:28:28.987Z,16.88
2024-04-04T10:29:33.767Z,16.88
2024-04-04T10:30:29.950Z,16.88
2024-04-04T10:31:28.948Z,16.88
2024-04-04T10:32:28.931Z,16.88
2024-04-04T10:33:28.923Z,22.50
2024-04-04T10:34:28.927Z,22.50
2024-04-04T10:35:28.901Z,22.50
2024-04-04T10:36:28.889Z,22.50
2024-04-04T10:37:28.887Z,22.50
2024-04-04T10:38:28.886Z,22.50
2024-04-04T10:39:28.847Z,22.50
2024-04-04T10:40:28.842Z,22.50
2024-04-04T10:41:28.830Z,22.50
2024-04-04T10:42:28.838Z,22.50
2024-04-04T10:43:28.832Z,22.50
2024-04-04T10:44:28.827Z,22.50
2024-04-04T10:45:28.785Z,22.50
2024-04-04T10:46:28.783Z,22.50
2024-04-04T10:47:28.765Z,16.88
2024-04-04T10:48:28.761Z,16.88
2024-04-04T10:49:28.761Z,16.88
2024-04-04T10:50:28.752Z,16.88
2024-04-04T10:51:28.714Z,16.88
2024-04-04T10:52:28.712Z,16.88
2024-04-04T10:53:28.697Z,16.88
2024-04-04T10:54:28.690Z,16.88
2024-04-04T10:55:28.717Z,11.25
2024-04-04T10:56:28.681Z,11.25
2024-04-04T10:57:28.657Z,11.25
2024-04-04T10:58:28.644Z,11.25
2024-04-04T10:59:28.634Z,11.25
2024-04-04T11:00:28.637Z,11.25
2024-04-04T11:01:28.611Z,11.25
2024-04-04T11:02:28.609Z,11.25
2024-04-04T11:03:28.582Z,16.88
2024-04-04T11:04:28.572Z,16.88
2024-04-04T11:05:28.560Z,16.88
2024-04-04T11:06:28.585Z,16.88
2024-04-04T11:07:28.538Z,16.88
2024-04-04T11:08:28.530Z,22.50
2024-04-04T11:09:28.519Z,22.50
2024-04-04T11:10:28.504Z,22.50
2024-04-04T11:11:28.508Z,22.50
2024-04-04T11:12:28.488Z,22.50
2024-04-04T11:13:28.474Z,22.50
2024-04-04T11:14:28.497Z,28.12
2024-04-04T11:15:28.454Z,28.12
2024-04-04T11:16:28.436Z,28.12
2024-04-04T11:17:28.425Z,28.12
2024-04-04T11:18:28.417Z,28.12
2024-04-04T11:19:28.411Z,28.12
2024-04-04T11:20:28.411Z,28.12
2024-04-04T11:21:28.391Z,22.50
2024-04-04T11:22:28.377Z,22.50
2024-04-04T11:23:28.360Z,22.50
2024-04-04T11:24:28.364Z,22.50
2024-04-04T11:25:28.342Z,22.50
2024-04-04T11:26:28.341Z,22.50
2024-04-04T11:27:28.326Z,22.50
2024-04-04T11:28:28.305Z,22.50
2024-04-04T11:29:28.292Z,22.50
2024-04-04T11:30:28.304Z,28.12
2024-04-04T11:31:28.273Z,28.12
2024-04-04T11:32:28.283Z,33.75
2024-04-04T11:33:28.247Z,28.12
2024-04-04T11:34:28.250Z,28.12
2024-04-04T11:35:28.245Z,28.12
2024-04-04T11:36:28.219Z,28.12
2024-04-04T11:37:28.207Z,28.12
2024-04-04T11:38:28.217Z,33.75
2024-04-04T11:39:28.200Z,33.75
2024-04-04T11:40:28.168Z,39.38
2024-04-04T11:41:28.178Z,39.38
2024-04-04T11:42:28.148Z,39.38
2024-04-04T11:43:28.136Z,39.38
2024-04-04T11:44:28.132Z,33.75
2024-04-04T11:45:28.139Z,33.75
2024-04-04T11:46:28.107Z,28.12
2024-04-04T11:47:28.117Z,28.12
2024-04-04T11:48:28.096Z,28.12
2024-04-04T11:49:28.068Z,22.50
2024-04-04T11:50:28.065Z,22.50
2024-04-04T11:51:28.062Z,22.50
2024-04-04T11:52:28.041Z,22.50
2024-04-04T11:53:28.027Z,22.50
2024-04-04T11:54:30.416Z,22.50
2024-04-04T11:55:28.005Z,22.50
2024-04-04T11:56:28.002Z,16.88
2024-04-04T11:57:27.980Z,16.88
2024-04-04T11:58:27.970Z,16.88
2024-04-04T11:59:27.959Z,16.88
2024-04-04T12:00:30.001Z,16.88
2024-04-04T12:01:27.949Z,16.88
2024-04-04T12:02:27.958Z,16.88
2024-04-04T12:03:27.912Z,22.50
2024-04-04T12:04:27.905Z,28.12
2024-04-04T12:05:27.903Z,33.75
2024-04-04T12:06:28.680Z,33.75
2024-04-04T12:07:27.876Z,33.75
2024-04-04T12:08:29.999Z,33.75
2024-04-04T12:09:27.845Z,33.75
2024-04-04T12:10:27.864Z,33.75
2024-04-04T12:11:27.833Z,28.12
2024-04-04T12:12:27.813Z,28.12
2024-04-04T12:13:27.814Z,22.50
2024-04-04T12:14:27.802Z,22.50
2024-04-04T12:15:27.776Z,22.50
2024-04-04T12:16:27.764Z,28.12
2024-04-04T12:17:27.761Z,28.12
2024-04-04T12:18:27.748Z,28.12
2024-04-04T12:19:27.743Z,28.12
2024-04-04T12:20:27.743Z,28.12
2024-04-04T12:21:27.717Z,28.12
2024-04-04T12:22:27.702Z,28.12
2024-04-04T12:23:29.698Z,33.75
2024-04-04T12:24:28.682Z,39.38
2024-04-04T12:25:27.681Z,39.38
2024-04-04T12:26:27.701Z,39.38
2024-04-04T12:27:27.649Z,45.00
2024-04-04T12:28:27.636Z,45.00
2024-04-04T12:29:27.646Z,39.38
2024-04-04T12:30:27.614Z,39.38
2024-04-04T12:31:27.626Z,39.38
2024-04-04T12:32:27.591Z,33.75
2024-04-04T12:33:27.586Z,33.75
2024-04-04T12:34:27.574Z,28.12
2024-04-04T12:35:27.566Z,22.50
2024-04-04T12:36:27.583Z,22.50
2024-04-04T12:37:27.537Z,22.50
2024-04-04T12:38:27.533Z,16.88
2024-04-04T12:39:27.526Z,16.88
2024-04-04T12:40:27.517Z,16.88
2024-04-04T12:41:27.504Z,11.25
2024-04-04T12:42:27.488Z,16.88
2024-04-04T12:43:27.470Z,16.88
2024-04-04T12:44:27.484Z,11.25
2024-04-04T12:45:27.446Z,11.25
2024-04-04T12:46:27.440Z,11.25
2024-04-04T12:47:27.437Z,11.25
2024-04-04T12:48:27.429Z,5.62
2024-04-04T12:49:27.420Z,5.62
2024-04-04T12:50:27.390Z,5.62
2024-04-04T12:51:27.382Z,5.62
2024-04-04T12:52:27.369Z,5.62
2024-04-04T12:53:27.409Z,5.62
2024-04-04T12:54:27.364Z,5.62
2024-04-04T12:55:27.343Z,5.62
2024-04-04T12:56:27.476Z,5.62
2024-04-04T12:57:27.347Z,5.62
2024-04-04T12:58:27.316Z,5.62
2024-04-04T12:59:27.357Z,0.00
2024-04-04T13:00:27.300Z,0.00
2024-04-04T13:01:27.276Z,0.00
2024-04-04T13:02:27.298Z,0.00
2024-04-04T13:03:27.248Z,0.00
2024-04-04T13:04:27.251Z,0.00